Time;durP1;ratioP1;P1;durP2;ratioP2;P2;SDS_P1;SDS_P2;PMS_P1;PMS_P2;Temp;Humidity;BMP_temperature;BMP_pressure;BME280_temperature;BME280_humidity;BME280_pressure;Samples;Min_cycle;Max_cycle;Signal;HPM_P1;HPM_P2
2021/10/23 00:03:52;;;;;;;4.82;2.67;;;6.00;99.90;;;;;;8351368;28;20511;-73
2021/10/23 00:07:54;;;;;;;5.00;2.40;;;6.00;99.90;;;;;;8350945;28;20053;-72
2021/10/23 00:12:07;;;;;;;5.22;2.88;;;6.00;99.90;;;;;;8348089;28;20059;-72
2021/10/23 00:16:10;;;;;;;6.47;3.10;;;6.00;99.90;;;;;;8349485;28;20102;-72
2021/10/23 00:20:12;;;;;;;6.93;3.53;;;6.00;99.90;;;;;;8351729;28;20471;-72
2021/10/23 00:24:14;;;;;;;9.02;4.45;;;6.00;99.90;;;;;;8351853;28;20045;-72
2021/10/23 00:28:16;;;;;;;8.63;5.30;;;6.00;99.90;;;;;;8351939;28;20065;-72
2021/10/23 00:32:17;;;;;;;13.27;5.28;;;6.00;99.90;;;;;;8340172;28;20064;-72
2021/10/23 00:36:19;;;;;;;7.22;4.35;;;6.00;99.90;;;;;;8352196;28;20049;-72
2021/10/23 00:40:21;;;;;;;9.32;5.95;;;6.00;99.90;;;;;;8352093;28;20044;-73
2021/10/23 00:44:37;;;;;;;10.82;6.38;;;5.90;99.90;;;;;;8343645;28;20433;-72
2021/10/23 00:48:40;;;;;;;9.38;5.53;;;5.90;99.90;;;;;;8352783;28;20053;-72
2021/10/23 00:52:42;;;;;;;10.10;5.43;;;6.00;99.90;;;;;;8342491;28;20052;-72
2021/10/23 00:56:44;;;;;;;10.30;6.03;;;5.90;99.90;;;;;;8355586;28;20554;-72
2021/10/23 01:00:46;;;;;;;8.57;5.63;;;6.00;99.90;;;;;;8356978;28;20060;-72
2021/10/23 01:04:48;;;;;;;11.38;5.93;;;5.90;99.90;;;;;;8358493;28;20052;-72
2021/10/23 01:08:50;;;;;;;7.10;4.57;;;5.90;99.90;;;;;;8361264;28;20057;-72
2021/10/23 01:12:51;;;;;;;8.05;4.68;;;5.90;99.90;;;;;;8345510;28;20053;-72
2021/10/23 01:16:55;;;;;;;7.00;3.35;;;5.80;99.90;;;;;;8347967;28;20037;-72
2021/10/23 01:20:57;;;;;;;6.35;3.78;;;5.70;99.90;;;;;;8345566;28;20065;-72
2021/10/23 01:24:59;;;;;;;7.53;3.72;;;5.70;99.90;;;;;;8345746;28;20046;-72
2021/10/23 01:29:01;;;;;;;8.32;3.85;;;5.60;99.90;;;;;;8356536;28;20523;-72
2021/10/23 01:33:03;;;;;;;6.40;3.28;;;5.60;99.90;;;;;;8349326;28;20052;-72
2021/10/23 01:37:04;;;;;;;8.88;3.33;;;5.60;99.90;;;;;;8360322;28;20048;-72
2021/10/23 01:41:07;;;;;;;7.78;4.53;;;5.50;99.90;;;;;;8352509;28;20068;-71
2021/10/23 01:45:10;;;;;;;7.72;4.00;;;5.40;99.90;;;;;;8339445;28;20417;-72
2021/10/23 01:49:12;;;;;;;6.32;3.40;;;5.40;99.90;;;;;;8335553;28;20052;-72
2021/10/23 01:53:13;;;;;;;7.13;3.17;;;5.40;99.90;;;;;;8341843;28;20053;-72
2021/10/23 01:57:15;;;;;;;6.60;3.30;;;5.40;99.90;;;;;;8342860;28;20041;-72
2021/10/23 02:01:17;;;;;;;4.95;2.47;;;5.30;99.90;;;;;;8348780;28;20463;-72
2021/10/23 02:05:19;;;;;;;4.50;2.60;;;5.30;99.90;;;;;;8349097;28;20080;-72
2021/10/23 02:09:21;;;;;;;;;;;5.30;99.90;;;;;;8351502;28;19925;-72
2021/10/23 02:13:22;;;;;;;;;;;5.20;99.90;;;;;;8366289;28;19921;-71
2021/10/23 02:17:25;;;;;;;;;;;5.20;99.90;;;;;;8356665;28;19974;-71
2021/10/23 02:21:27;;;;;;;;;;;5.10;99.90;;;;;;8336684;28;19936;-71
2021/10/23 02:25:29;;;;;;;;;;;5.10;99.90;;;;;;8350209;28;19921;-71
2021/10/23 02:29:30;;;;;;;;;;;5.10;99.90;;;;;;8337167;28;19921;-72
2021/10/23 02:33:32;;;;;;;;;;;5.00;99.90;;;;;;8353418;28;19921;-71
2021/10/23 02:37:34;;;;;;;;;;;5.00;99.90;;;;;;8350348;28;20357;-71
2021/10/23 02:41:36;;;;;;;;;;;4.90;99.90;;;;;;8352945;28;19971;-72
2021/10/23 02:45:38;;;;;;;;;;;4.90;99.90;;;;;;8346125;28;19924;-71
2021/10/23 02:49:40;;;;;;;;;;;4.80;99.90;;;;;;8345096;28;20383;-72
2021/10/23 02:53:41;;;;;;;;;;;4.80;99.90;;;;;;8378253;28;19932;-71
2021/10/23 02:57:43;;;;;;;;;;;4.80;99.90;;;;;;8354451;28;19921;-71
2021/10/23 03:01:45;;;;;;;;;;;4.70;99.90;;;;;;8354727;28;19928;-73
2021/10/23 03:05:47;;;;;;;;;;;4.70;99.90;;;;;;8372755;28;19925;-71
2021/10/23 03:09:49;;;;;;;;;;;4.70;99.90;;;;;;8353152;28;19971;-71
2021/10/23 03:13:51;;;;;;;;;;;4.70;99.90;;;;;;8337090;28;19944;-72
2021/10/23 03:17:52;;;;;;;;;;;4.60;99.90;;;;;;8329752;28;19941;-73
2021/10/23 03:21:54;;;;;;;;;;;4.60;99.90;;;;;;8326717;28;19966;-71
2021/10/23 03:25:55;;;;;;;;;;;4.60;99.90;;;;;;8352648;28;19944;-72
2021/10/23 03:29:57;;;;;;;;;;;4.60;99.90;;;;;;8354606;28;19935;-72
2021/10/23 03:33:59;;;;;;;;;;;4.60;99.90;;;;;;8371393;28;19948;-71
2021/10/23 03:38:01;;;;;;;;;;;4.60;99.90;;;;;;8339098;28;19925;-72
2021/10/23 03:42:03;;;;;;;;;;;4.50;99.90;;;;;;8345796;28;19927;-72
2021/10/23 03:46:04;;;;;;;;;;;4.50;99.90;;;;;;8337554;28;19921;-71
2021/10/23 03:50:06;;;;;;;;;;;4.40;99.90;;;;;;8349184;28;20442;-71
2021/10/23 03:54:08;;;;;;;;;;;4.40;99.90;;;;;;8346032;28;19920;-71
2021/10/23 03:58:10;;;;;;;;;;;4.40;99.90;;;;;;8348163;28;19927;-71
2021/10/23 04:02:12;;;;;;;;;;;4.40;99.90;;;;;;8350896;28;19995;-71
2021/10/23 04:06:14;;;;;;;;;;;4.30;99.90;;;;;;8354368;28;19931;-71
2021/10/23 04:10:15;;;;;;;;;;;4.30;99.90;;;;;;8357911;28;19925;-71
2021/10/23 04:14:17;;;;;;;;;;;4.30;99.90;;;;;;8354911;28;20344;-71
2021/10/23 04:18:19;;;;;;;;;;;4.30;99.90;;;;;;8356124;28;19943;-71
2021/10/23 04:22:21;;;;;;;;;;;4.20;99.90;;;;;;8322707;28;19928;-72
2021/10/23 04:26:23;;;;;;;;;;;4.20;99.90;;;;;;8339175;28;19920;-71
2021/10/23 04:30:25;;;;;;;;;;;4.20;99.90;;;;;;8368340;28;20056;-71
2021/10/23 04:34:27;;;;;;;;;;;4.20;99.90;;;;;;8354515;28;20382;-71
2021/10/23 04:38:29;;;;;;;;;;;4.10;99.90;;;;;;8358782;28;19921;-71
2021/10/23 04:42:32;;;;;;;;;;;4.10;99.90;;;;;;8368804;28;20007;-71
2021/10/23 04:46:34;;;;;;;;;;;4.10;99.90;;;;;;8361425;28;19925;-71
2021/10/23 04:50:35;;;;;;;;;;;4.10;99.90;;;;;;8358601;28;19921;-71
2021/10/23 04:54:37;;;;;;;;;;;4.10;99.90;;;;;;8348976;28;19925;-72
2021/10/23 04:58:39;;;;;;;;;;;4.00;99.90;;;;;;8354322;28;19920;-72
2021/10/23 05:02:40;;;;;;;;;;;4.00;99.90;;;;;;8349572;28;19920;-71
2021/10/23 05:06:42;;;;;;;;;;;4.00;99.90;;;;;;8348824;28;20323;-71
2021/10/23 05:10:43;;;;;;;;;;;4.00;99.90;;;;;;8348856;28;19944;-71
2021/10/23 05:14:45;;;;;;;;;;;4.00;99.90;;;;;;8354278;28;20277;-71
2021/10/23 05:23:26;;;;;;;;;;;4.00;99.90;;;;;;8339730;28;20335;-72
2021/10/23 05:27:28;;;;;;;;;;;4.00;99.90;;;;;;8352470;28;19928;-71
2021/10/23 05:31:29;;;;;;;;;;;3.90;99.90;;;;;;8363847;28;19921;-71
2021/10/23 05:35:31;;;;;;;;;;;3.90;99.90;;;;;;8338242;28;19921;-71
2021/10/23 05:39:33;;;;;;;;;;;3.90;99.90;;;;;;8381394;28;19921;-71
2021/10/23 05:43:34;;;;;;;;;;;3.90;99.90;;;;;;8362268;28;19921;-71
2021/10/23 05:47:36;;;;;;;;;;;3.90;99.90;;;;;;8368981;28;19921;-71
2021/10/23 05:51:38;;;;;;;;;;;3.80;99.90;;;;;;8357027;28;20368;-71
2021/10/23 05:55:39;;;;;;;;;;;3.80;99.90;;;;;;8352005;28;19927;-71
2021/10/23 05:59:50;;;;;;;;;;;3.80;99.90;;;;;;8354557;28;19920;-71
2021/10/23 06:04:16;;;;;;;;;;;3.80;99.90;;;;;;8356255;28;19974;-71
2021/10/23 06:08:17;;;;;;;;;;;3.80;99.90;;;;;;8374078;28;19948;-71
2021/10/23 06:12:19;;;;;;;;;;;3.80;99.90;;;;;;8347314;28;19920;-72
2021/10/23 06:16:22;;;;;;;;;;;3.80;99.90;;;;;;8347645;28;19921;-71
2021/10/23 06:20:23;;;;;;;;;;;3.80;99.90;;;;;;8336075;28;19921;-71
2021/10/23 06:24:25;;;;;;;;;;;3.80;99.90;;;;;;8336041;28;19986;-71
2021/10/23 06:28:27;;;;;;;;;;;3.80;99.90;;;;;;8343985;28;19931;-71
2021/10/23 06:32:28;;;;;;;;;;;3.80;99.90;;;;;;8348900;28;20305;-72
2021/10/23 06:36:30;;;;;;;;;;;3.80;99.90;;;;;;8356903;28;20445;-72
2021/10/23 06:40:32;;;;;;;;;;;3.80;99.90;;;;;;8352269;28;19921;-71
2021/10/23 06:44:33;;;;;;;;;;;3.90;99.90;;;;;;8342466;28;19921;-71
2021/10/23 06:48:35;;;;;;;;;;;3.90;99.90;;;;;;8348365;28;19921;-71
2021/10/23 06:52:49;;;;;;;;;;;4.00;99.90;;;;;;8342243;28;19920;-71
2021/10/23 06:56:50;;;;;;;;;;;4.00;99.90;;;;;;8328780;28;20316;-72
2021/10/23 07:00:52;;;;;;;;;;;4.10;99.90;;;;;;8342715;28;19929;-71
2021/10/23 07:04:54;;;;;;;;;;;4.20;99.90;;;;;;8347647;28;19936;-71
2021/10/23 07:08:56;;;;;;;;;;;4.30;99.90;;;;;;8334344;28;19967;-71
2021/10/23 07:12:58;;;;;;;;;;;4.40;99.90;;;;;;8351720;28;19936;-71
2021/10/23 07:16:59;;;;;;;;;;;4.50;99.90;;;;;;8356120;28;19975;-71
2021/10/23 07:21:01;;;;;;;;;;;4.60;99.90;;;;;;8333825;28;19921;-71
2021/10/23 07:25:03;;;;;;;;;;;4.60;99.90;;;;;;8360867;28;19920;-71
2021/10/23 07:29:05;;;;;;;;;;;4.70;99.90;;;;;;8343601;28;19925;-71
2021/10/23 07:33:07;;;;;;;;;;;4.80;99.90;;;;;;8350300;28;19925;-71
2021/10/23 07:37:08;;;;;;;;;;;4.90;99.90;;;;;;8354875;28;20256;-71
2021/10/23 07:41:10;;;;;;;;;;;5.00;99.90;;;;;;8352060;28;19943;-72
2021/10/23 07:45:12;;;;;;;;;;;5.10;99.90;;;;;;8361658;28;19936;-72
2021/10/23 07:49:14;;;;;;;;;;;5.20;99.90;;;;;;8371764;28;19928;-72
2021/10/23 07:53:15;;;;;;;;;;;5.30;99.90;;;;;;8352449;28;19928;-71
2021/10/23 07:57:17;;;;;;;;;;;5.40;99.90;;;;;;8361802;28;19921;-71
2021/10/23 08:01:19;;;;;;;;;;;5.60;99.90;;;;;;8362321;28;19944;-71
2021/10/23 08:05:22;;;;;;;;;;;5.70;99.90;;;;;;8339327;28;19932;-72
2021/10/23 08:09:23;;;;;;;;;;;5.80;99.90;;;;;;8352551;28;20236;-71
2021/10/23 08:13:26;;;;;;;;;;;5.90;99.90;;;;;;8367783;28;20364;-71
2021/10/23 08:17:28;;;;;;;;;;;6.00;99.90;;;;;;8355587;28;19932;-72
2021/10/23 08:21:30;;;;;;;;;;;6.10;99.90;;;;;;8338200;28;20379;-72
2021/10/23 08:25:34;;;;;;;;;;;6.20;99.90;;;;;;8372712;28;19921;-71
2021/10/23 08:29:36;;;;;;;;;;;6.30;99.90;;;;;;8361847;28;20404;-72
2021/10/23 08:33:38;;;;;;;;;;;6.30;99.90;;;;;;8349250;28;19925;-72
2021/10/23 08:37:40;;;;;;;;;;;6.40;99.90;;;;;;8340306;28;19925;-72
2021/10/23 08:41:43;;;;;;;;;;;6.50;99.90;;;;;;8340656;28;20323;-71
2021/10/23 08:45:45;;;;;;;;;;;6.60;99.90;;;;;;8349261;28;20655;-71
2021/10/23 08:49:47;;;;;;;;;;;6.70;99.90;;;;;;8351507;28;19921;-71
2021/10/23 08:53:49;;;;;;;;;;;6.80;99.90;;;;;;8351176;28;19931;-72
2021/10/23 08:57:51;;;;;;;;;;;6.80;99.90;;;;;;8353792;28;19924;-72
2021/10/23 09:02:00;;;;;;;;;;;6.90;99.90;;;;;;8349114;28;20373;-71
2021/10/23 09:06:02;;;;;;;;;;;7.10;99.90;;;;;;8356476;28;19952;-72
2021/10/23 09:10:05;;;;;;;;;;;7.20;99.90;;;;;;8357614;28;20046;-72
2021/10/23 09:14:28;;;;;;;;;;;7.30;99.90;;;;;;8356305;28;19975;-72
2021/10/23 09:18:45;;;;;;;;;;;7.40;99.90;;;;;;8335316;28;20299;-71
2021/10/23 09:22:51;;;;;;;;;;;7.60;99.90;;;;;;8322607;28;20214;-72
2021/10/23 09:26:56;;;;;;;;;;;7.70;99.90;;;;;;8346780;28;19920;-72
2021/10/23 09:30:58;;;;;;;;;;;7.80;99.90;;;;;;8315319;28;20288;-73
2021/10/23 09:35:29;;;;;;;;;;;7.90;99.90;;;;;;8319908;28;20270;-71
2021/10/23 09:39:34;;;;;;;;;;;8.10;99.90;;;;;;8320156;28;19921;-72
2021/10/23 09:43:36;;;;;;;;;;;8.20;99.90;;;;;;8324523;28;19969;-72
2021/10/23 09:47:39;;;;;;;;;;;8.30;99.90;;;;;;8318502;28;19929;-72
2021/10/23 09:51:41;;;;;;;;;;;8.50;99.90;;;;;;8336716;28;20236;-72
2021/10/23 09:55:48;;;;;;;;;;;8.60;99.90;;;;;;8318689;28;19921;-72
2021/10/23 10:00:02;;;;;;;;;;;8.70;99.90;;;;;;8324316;28;19978;-72
2021/10/23 10:04:04;;;;;;;;;;;8.80;99.90;;;;;;8328257;28;20385;-72
2021/10/23 10:08:07;;;;;;;;;;;9.00;99.90;;;;;;8330985;28;19967;-72
2021/10/23 10:12:09;;;;;;;;;;;9.10;99.90;;;;;;8307891;28;19921;-72
2021/10/23 10:16:11;;;;;;;;;;;9.20;99.90;;;;;;8318555;28;19952;-72
2021/10/23 10:20:13;;;;;;;;;;;9.30;99.90;;;;;;8305810;28;20021;-72
2021/10/23 10:24:14;;;;;;;;;;;9.40;99.90;;;;;;8311427;28;19921;-72
2021/10/23 10:28:17;;;;;;;;;;;9.60;99.90;;;;;;8335981;28;19928;-72
2021/10/23 10:32:28;;;;;;;;;;;9.70;99.90;;;;;;8355145;28;19921;-73
2021/10/23 10:36:33;;;;;;;;;;;9.80;99.90;;;;;;8345164;28;19921;-72
2021/10/23 10:44:39;;;;;;;;;;;10.00;99.90;;;;;;8345895;28;19982;-73
2021/10/23 10:48:41;;;;;;;;;;;10.00;99.90;;;;;;8352329;28;19924;-72
2021/10/23 10:52:43;;;;;;;;;;;10.10;99.90;;;;;;8350415;28;19921;-73
2021/10/23 10:56:47;;;;;;;;;;;10.20;99.90;;;;;;8339721;28;19921;-73
2021/10/23 11:00:49;;;;;;;;;;;10.30;99.90;;;;;;8352362;28;19995;-73
2021/10/23 11:05:11;;;;;;;;;;;10.40;99.90;;;;;;8352631;28;19925;-72
2021/10/23 11:09:14;;;;;;;;;;;10.50;99.90;;;;;;8359712;28;19990;-72
2021/10/23 11:13:23;;;;;;;;;;;10.50;99.90;;;;;;8366294;28;19921;-72
2021/10/23 11:17:25;;;;;;;;;;;10.60;99.90;;;;;;8348295;28;19947;-72
2021/10/23 11:21:27;;;;;;;;;;;10.60;99.90;;;;;;8340138;28;19921;-72
2021/10/23 11:25:28;;;;;;;;;;;10.60;99.90;;;;;;8352210;28;19921;-72
2021/10/23 11:29:30;;;;;;;;;;;10.60;99.90;;;;;;8357778;28;19924;-72
2021/10/23 11:33:36;;;;;;;;;;;10.70;99.90;;;;;;8352303;28;19932;-72
2021/10/23 11:37:39;;;;;;;;;;;10.70;99.90;;;;;;8359604;28;19924;-72
2021/10/23 11:41:41;;;;;;;;;;;10.80;99.90;;;;;;8364287;28;19974;-72
2021/10/23 11:45:43;;;;;;;;;;;10.80;99.90;;;;;;8356082;28;20288;-73
2021/10/23 11:49:45;;;;;;;;;;;10.90;99.90;;;;;;8349314;28;20339;-72
2021/10/23 11:53:47;;;;;;;;;;;10.90;99.90;;;;;;8354898;28;20345;-73
2021/10/23 11:57:53;;;;;;;;;;;11.00;99.90;;;;;;8351694;28;19925;-72
2021/10/23 12:01:55;;;;;;;20.50;12.23;;;11.00;99.90;;;;;;8341566;28;19944;-72
2021/10/23 12:05:57;;;;;;;21.40;12.00;;;11.00;99.90;;;;;;8352380;28;20056;-72
2021/10/23 12:10:05;;;;;;;;;;;11.10;99.90;;;;;;8347884;28;19921;-72
2021/10/23 12:14:11;;;;;;;;;;;11.20;99.90;;;;;;8352531;28;19921;-73
2021/10/23 12:18:24;;;;;;;;;;;11.20;99.90;;;;;;8369177;28;20008;-72
2021/10/23 12:22:36;;;;;;;;;;;11.30;99.90;;;;;;8345983;28;19925;-72
2021/10/23 12:26:37;;;;;;;;;;;11.40;99.90;;;;;;8373003;28;19921;-72
2021/10/23 12:30:39;;;;;;;;;;;11.40;99.90;;;;;;8361548;28;19921;-73
2021/10/23 12:34:50;;;;;;;;;;;11.40;99.90;;;;;;8352666;28;19933;-72
2021/10/23 12:38:51;;;;;;;;;;;11.50;99.90;;;;;;8354260;28;19921;-73
2021/10/23 12:43:06;;;;;;;;;;;11.50;99.90;;;;;;8350850;28;19956;-73
2021/10/23 12:47:08;;;;;;;;;;;11.60;99.90;;;;;;8359439;28;20387;-72
2021/10/23 12:51:10;;;;;;;;;;;11.60;99.90;;;;;;8359456;28;19920;-72
2021/10/23 12:55:11;;;;;;;;;;;11.60;99.90;;;;;;8372262;28;19928;-72
2021/10/23 12:59:13;;;;;;;;;;;11.60;99.90;;;;;;8358601;28;19921;-73
2021/10/23 13:03:17;;;;;;;;;;;11.70;99.90;;;;;;8359163;28;19924;-72
2021/10/23 13:07:18;;;;;;;;;;;11.70;99.90;;;;;;8364232;28;19921;-72
2021/10/23 13:11:20;;;;;;;;;;;11.80;99.90;;;;;;8350834;28;20090;-72
2021/10/23 13:15:22;;;;;;;;;;;11.70;99.90;;;;;;8355592;28;19932;-72
2021/10/23 13:19:23;;;;;;;;;;;11.80;99.90;;;;;;8382334;28;19920;-72
2021/10/23 13:23:25;;;;;;;;;;;11.80;99.90;;;;;;8334732;28;19964;-72
2021/10/23 13:27:26;;;;;;;;;;;11.80;99.90;;;;;;8347243;28;19921;-72
2021/10/23 13:31:28;;;;;;;;;;;11.80;99.90;;;;;;8358663;28;19920;-72
2021/10/23 13:35:30;;;;;;;;;;;11.90;99.90;;;;;;8351150;28;19921;-72
2021/10/23 13:39:32;;;;;;;;;;;11.90;99.90;;;;;;8344354;28;19932;-72
2021/10/23 13:43:33;;;;;;;;;;;11.90;99.90;;;;;;8350749;28;19929;-72
2021/10/23 13:47:38;;;;;;;;;;;11.90;99.90;;;;;;8342899;28;21271;-72
2021/10/23 13:51:40;;;;;;;;;;;11.90;99.90;;;;;;8354244;28;19921;-72
2021/10/23 13:55:43;;;;;;;;;;;11.90;99.90;;;;;;8346174;28;19921;-72
2021/10/23 13:59:44;;;;;;;;;;;12.00;99.90;;;;;;8348233;28;19924;-73
2021/10/23 14:03:46;;;;;;;;;;;12.00;99.90;;;;;;8350692;28;20269;-72
2021/10/23 14:07:47;;;;;;;;;;;12.00;99.90;;;;;;8351134;28;19921;-73
2021/10/23 14:11:49;;;;;;;;;;;12.00;99.90;;;;;;8349181;28;19987;-73
2021/10/23 14:15:51;;;;;;;;;;;12.10;99.90;;;;;;8358879;28;19932;-73
2021/10/23 14:19:53;;;;;;;;;;;12.10;99.90;;;;;;8341951;28;20425;-72
2021/10/23 14:23:55;;;;;;;;;;;12.10;99.90;;;;;;8335980;28;19921;-72
2021/10/23 14:27:57;;;;;;;;;;;12.20;99.90;;;;;;8348312;28;20368;-72
2021/10/23 14:31:59;;;;;;;;;;;12.20;99.90;;;;;;8359894;28;20349;-72
2021/10/23 14:36:01;;;;;;;;;;;12.20;99.90;;;;;;8352758;28;20407;-72
2021/10/23 14:40:04;;;;;;;;;;;12.30;99.90;;;;;;8343029;28;19920;-72
2021/10/23 14:44:06;;;;;;;;;;;12.20;99.90;;;;;;8363434;28;19924;-72
2021/10/23 14:48:07;;;;;;;;;;;12.20;99.90;;;;;;8345737;28;20337;-72
2021/10/23 14:52:09;;;;;;;;;;;12.30;99.90;;;;;;8362804;28;19927;-72
2021/10/23 14:56:11;;;;;;;;;;;12.20;99.90;;;;;;8347597;28;19928;-72
2021/10/23 15:00:12;;;;;;;;;;;12.20;99.90;;;;;;8333549;28;19991;-72
2021/10/23 15:04:14;;;;;;;;;;;12.20;99.90;;;;;;8344813;28;19925;-72
2021/10/23 15:08:16;;;;;;;;;;;12.20;99.90;;;;;;8348190;28;19947;-72
2021/10/23 15:12:18;;;;;;;;;;;12.20;99.90;;;;;;8348842;28;19955;-72
2021/10/23 15:16:19;;;;;;;;;;;12.20;99.90;;;;;;8350186;28;19921;-72
2021/10/23 15:20:21;;;;;;;;;;;12.20;99.90;;;;;;8359134;28;20341;-72
2021/10/23 15:24:23;;;;;;;;;;;12.20;99.90;;;;;;8342342;28;19990;-72
2021/10/23 15:28:25;;;;;;;;;;;12.20;99.90;;;;;;8352135;28;20392;-72
2021/10/23 15:32:27;;;;;;;;;;;12.20;99.90;;;;;;8295530;28;19928;-73
2021/10/23 15:36:29;;;;;;;;;;;12.10;99.90;;;;;;8320435;28;19932;-72
2021/10/23 15:40:45;;;;;;;;;;;12.20;99.90;;;;;;8292094;28;19925;-73
2021/10/23 15:44:47;;;;;;;;;;;12.20;99.90;;;;;;8289780;28;19922;-73
2021/10/23 15:48:49;;;;;;;;;;;12.10;99.90;;;;;;8305197;28;19925;-72
2021/10/23 15:52:51;;;;;;;;;;;12.10;99.90;;;;;;8294489;28;19925;-72
2021/10/23 15:56:52;;;;;;;;;;;12.10;99.90;;;;;;8303612;28;19922;-72
2021/10/23 16:00:54;;;;;;;;;;;12.10;99.90;;;;;;8307028;28;19967;-72
2021/10/23 16:04:56;;;;;;;;;;;12.10;99.90;;;;;;8327928;28;20015;-72
2021/10/23 16:08:57;;;;;;;;;;;12.00;99.90;;;;;;8296494;28;19926;-72
2021/10/23 16:13:01;;;;;;;;;;;12.00;99.90;;;;;;8297471;28;19944;-72
2021/10/23 16:17:04;;;;;;;;;;;12.00;99.90;;;;;;8314119;28;20015;-72
2021/10/23 16:21:06;;;;;;;;;;;12.00;99.90;;;;;;8297770;28;19969;-72
2021/10/23 16:25:08;;;;;;;;;;;12.00;99.90;;;;;;8296132;28;19940;-72
2021/10/23 16:29:11;;;;;;;;;;;12.00;99.90;;;;;;8299630;28;19926;-73
2021/10/23 16:33:12;;;;;;;;;;;11.90;99.90;;;;;;8298949;28;19952;-73
2021/10/23 16:37:14;;;;;;;;;;;11.90;99.90;;;;;;8310227;28;19928;-73
2021/10/23 16:41:16;;;;;;;;;;;11.90;99.90;;;;;;8315044;28;19932;-72
2021/10/23 16:45:17;;;;;;;;;;;11.90;99.90;;;;;;8295992;28;19922;-72
2021/10/23 16:49:19;;;;;;;;;;;11.80;99.90;;;;;;8298260;28;19937;-72
2021/10/23 16:53:21;;;;;;;;;;;11.80;99.90;;;;;;8300704;28;20289;-72
2021/10/23 16:57:22;;;;;;;;;;;11.80;99.90;;;;;;8297851;28;19921;-72
2021/10/23 17:01:24;;;;;;;;;;;11.80;99.90;;;;;;8299428;28;19925;-72
2021/10/23 17:05:26;;;;;;;;;;;11.80;99.90;;;;;;8310635;28;19976;-73
2021/10/23 17:09:28;;;;;;;;;;;11.70;99.90;;;;;;8299970;28;19929;-72
2021/10/23 17:13:30;;;;;;;;;;;11.70;99.90;;;;;;8295132;28;20804;-73
2021/10/23 17:17:31;;;;;;;;;;;11.70;99.90;;;;;;8304659;28;20373;-72
2021/10/23 17:21:33;;;;;;;;;;;11.70;99.90;;;;;;8290751;28;20262;-72
2021/10/23 17:25:35;;;;;;;;;;;11.60;99.90;;;;;;8311619;28;20376;-73
2021/10/23 17:29:37;;;;;;;;;;;11.60;99.90;;;;;;8328357;28;19925;-73
2021/10/23 17:33:39;;;;;;;;;;;11.60;99.90;;;;;;8297573;28;20401;-72
2021/10/23 17:37:44;;;;;;;;;;;11.60;99.90;;;;;;8302518;28;19921;-73
2021/10/23 17:41:46;;;;;;;;;;;11.60;99.90;;;;;;8296290;28;19948;-72
2021/10/23 17:45:47;;;;;;;;;;;11.60;99.90;;;;;;8310847;28;19971;-72
2021/10/23 17:49:49;;;;;;;;;;;11.60;99.90;;;;;;8296294;28;19929;-73
2021/10/23 17:53:51;;;;;;;;;;;11.50;99.90;;;;;;8294628;28;19929;-72
2021/10/23 17:57:52;;;;;;;;;;;11.50;99.90;;;;;;8292568;28;20331;-72
2021/10/23 18:01:54;;;;;;;;;;;11.50;99.90;;;;;;8293608;28;19921;-72
2021/10/23 18:05:56;;;;;;;;;;;11.40;99.90;;;;;;8290074;28;19926;-72
2021/10/23 18:09:57;;;;;;;;;;;11.40;99.90;;;;;;8295472;28;20165;-72
2021/10/23 18:14:00;;;;;;;;;;;11.40;99.90;;;;;;8297914;28;19932;-72
2021/10/23 18:18:09;;;;;;;;;;;11.30;99.90;;;;;;8293579;28;20388;-73
2021/10/23 18:22:10;;;;;;;;;;;11.30;99.90;;;;;;8297552;28;19952;-72
2021/10/23 18:26:12;;;;;;;;;;;11.20;99.90;;;;;;8311610;28;19940;-73
2021/10/23 18:30:14;;;;;;;;;;;11.20;99.90;;;;;;8292218;28;19972;-72
2021/10/23 18:34:16;;;;;;;;;;;11.20;99.90;;;;;;8304242;28;19921;-72
2021/10/23 18:38:18;;;;;;;;;;;11.10;99.90;;;;;;8292799;28;20706;-72
2021/10/23 18:42:19;;;;;;;;;;;11.00;99.90;;;;;;8307874;28;19927;-72
2021/10/23 18:46:21;;;;;;;;;;;11.00;99.90;;;;;;8294102;28;19921;-73
2021/10/23 18:50:25;;;;;;;;;;;10.90;99.90;;;;;;8330406;28;19979;-73
2021/10/23 18:54:27;;;;;;;;;;;10.90;99.90;;;;;;8295860;28;20345;-72
2021/10/23 18:58:28;;;;;;;;;;;10.80;99.90;;;;;;8311353;28;19921;-72
2021/10/23 19:02:30;;;;;;;;;;;10.80;99.90;;;;;;8292357;28;19929;-71
2021/10/23 19:06:32;;;;;;;;;;;10.70;99.90;;;;;;8311243;28;20439;-72
2021/10/23 19:10:42;;;;;;;;;;;10.60;99.90;;;;;;8294115;28;19966;-72
2021/10/23 19:14:44;;;;;;;;;;;10.60;99.90;;;;;;8294781;28;20424;-72
2021/10/23 19:18:46;;;;;;;;;;;10.50;99.90;;;;;;8294323;28;20012;-71
2021/10/23 19:22:48;;;;;;;;;;;10.50;99.90;;;;;;8294549;28;19928;-72
2021/10/23 19:26:51;;;;;;;;;;;10.50;99.90;;;;;;8293483;28;19921;-72
2021/10/23 19:30:53;;;;;;;;;;;10.40;99.90;;;;;;8299521;28;19948;-72
2021/10/23 19:34:54;;;;;;;;;;;10.40;99.90;;;;;;8300527;28;19948;-72
2021/10/23 19:38:57;;;;;;;;;;;10.40;99.90;;;;;;8300594;28;20293;-73
2021/10/23 19:42:59;;;;;;;;;;;10.40;99.90;;;;;;8299968;28;20339;-72
2021/10/23 19:47:02;;;;;;;;;;;10.30;99.90;;;;;;8297354;28;19983;-72
2021/10/23 19:51:04;;;;;;;;;;;10.30;99.90;;;;;;8332525;28;19921;-72
2021/10/23 19:55:06;;;;;;;;;;;10.30;99.90;;;;;;8300022;28;19922;-72
2021/10/23 19:59:07;;;;;;;;;;;10.30;99.90;;;;;;8296302;28;19925;-72
2021/10/23 20:03:09;;;;;;;;;;;10.20;99.90;;;;;;8302423;28;19928;-72
2021/10/23 20:07:11;;;;;;;;;;;10.20;99.90;;;;;;8302222;28;20422;-72
2021/10/23 20:11:12;;;;;;;;;;;10.20;99.90;;;;;;8298673;28;20341;-72
2021/10/23 20:15:14;;;;;;;;;;;10.10;99.90;;;;;;8298569;28;20195;-72
2021/10/23 20:19:16;;;;;;;;;;;10.10;99.90;;;;;;8297217;28;20357;-72
2021/10/23 20:23:18;;;;;;;;;;;10.00;99.90;;;;;;8329669;28;19944;-72
2021/10/23 20:27:19;;;;;;;;;;;10.00;99.90;;;;;;8300227;28;19925;-72
2021/10/23 20:31:21;;;;;;;;;;;9.90;99.90;;;;;;8299378;28;19988;-72
2021/10/23 20:35:32;;;;;;;;;;;9.80;99.90;;;;;;8297794;28;19937;-72
2021/10/23 20:39:34;;;;;;;;;;;9.80;99.90;;;;;;8301891;28;19924;-72
2021/10/23 20:43:35;;;;;;;;;;;9.70;99.90;;;;;;8303278;28;20392;-72
2021/10/23 20:47:37;;;;;;;;;;;9.60;99.90;;;;;;8300674;28;20265;-72
2021/10/23 20:51:39;;;;;;;;;;;9.60;99.90;;;;;;8296822;28;20424;-72
2021/10/23 20:55:41;;;;;;;;;;;9.60;99.90;;;;;;8312616;28;19921;-72
2021/10/23 20:59:42;;;;;;;;;;;9.50;99.90;;;;;;8295264;28;19925;-72
2021/10/23 21:03:44;;;;;;;;;;;9.50;99.90;;;;;;8335422;28;20008;-72
2021/10/23 21:07:46;;;;;;;;;;;9.40;99.90;;;;;;8375846;28;20332;-72
2021/10/23 21:11:48;;;;;;;;;;;9.40;99.90;;;;;;8352793;28;20380;-72
2021/10/23 21:15:50;;;;;;;;;;;9.40;99.90;;;;;;8346704;28;19928;-72
2021/10/23 21:19:52;;;;;;;;;;;9.30;99.90;;;;;;8340988;28;20324;-72
2021/10/23 21:23:53;;;;;;;;;;;9.30;99.90;;;;;;8332424;28;20237;-72
2021/10/23 21:27:55;;;;;;;;;;;9.20;99.90;;;;;;8355765;28;19921;-71
2021/10/23 21:31:57;;;;;;;;;;;9.20;99.90;;;;;;8357725;28;19925;-72
2021/10/23 21:35:58;;;;;;;;;;;9.10;99.90;;;;;;8358061;28;19936;-72
2021/10/23 21:40:00;;;;;;;;;;;9.10;99.90;;;;;;8353320;28;20281;-72
2021/10/23 21:44:02;;;;;;;;;;;9.10;99.90;;;;;;8346905;28;19951;-72
2021/10/23 21:48:05;;;;;;;;;;;9.10;99.90;;;;;;8331075;28;19929;-72
2021/10/23 21:52:07;;;;;;;;;;;9.00;99.90;;;;;;8351008;28;20341;-72
2021/10/23 21:56:09;;;;;;;;;;;9.00;99.90;;;;;;8355780;28;19974;-72
2021/10/23 22:00:30;;;;;;;;;;;9.00;99.90;;;;;;8344018;28;20000;-71
2021/10/23 22:04:35;;;;;;;;;;;9.00;99.90;;;;;;8345004;28;19946;-72
2021/10/23 22:08:37;;;;;;;;;;;9.00;99.90;;;;;;8348770;28;19921;-72
2021/10/23 22:12:39;;;;;;;;;;;8.90;99.90;;;;;;8355301;28;19925;-72
2021/10/23 22:16:41;;;;;;;;;;;8.90;99.90;;;;;;8335019;28;20451;-72
2021/10/23 22:20:42;;;;;;;;;;;8.90;99.90;;;;;;8327770;28;19932;-72
2021/10/23 22:24:44;;;;;;;;;;;8.90;99.90;;;;;;8346782;28;19979;-72
2021/10/23 22:28:46;;;;;;;;;;;8.80;99.90;;;;;;8370357;28;19928;-72
2021/10/23 22:32:47;;;;;;;;;;;8.80;99.90;;;;;;8358732;28;19920;-72
2021/10/23 22:36:49;;;;;;;;;;;8.80;99.90;;;;;;8354470;28;19921;-72
2021/10/23 22:40:53;;;;;;;;;;;8.70;99.90;;;;;;8345042;28;19921;-72
2021/10/23 22:44:55;;;;;;;;;;;8.70;99.90;;;;;;8346505;28;19921;-72
2021/10/23 22:48:57;;;;;;;;;;;8.70;99.90;;;;;;8363253;28;19921;-72
2021/10/23 22:52:59;;;;;;;;;;;8.60;99.90;;;;;;8350192;28;19931;-72
2021/10/23 22:57:01;;;;;;;;;;;8.60;99.90;;;;;;8344095;28;19925;-72
2021/10/23 23:01:03;;;;;;;;;;;8.60;99.90;;;;;;8351810;28;20372;-71
2021/10/23 23:05:05;;;;;;;;;;;8.50;99.90;;;;;;8350521;28;20295;-72
2021/10/23 23:09:16;;;;;;;;;;;8.40;99.90;;;;;;8376159;28;19921;-72
2021/10/23 23:13:19;;;;;;;;;;;8.50;99.90;;;;;;8378888;28;19929;-72
2021/10/23 23:17:20;;;;;;;;;;;8.40;99.90;;;;;;8358869;28;19920;-72
2021/10/23 23:21:22;;;;;;;;;;;8.40;99.90;;;;;;8342849;28;19950;-72
2021/10/23 23:25:23;;;;;;;;;;;8.30;99.90;;;;;;8367027;28;19921;-72
2021/10/23 23:29:25;;;;;;;;;;;8.30;99.90;;;;;;8354235;28;20318;-72
2021/10/23 23:33:27;;;;;;;;;;;8.30;99.90;;;;;;8358490;28;20000;-72
2021/10/23 23:37:28;;;;;;;;;;;8.20;99.90;;;;;;8357295;28;19967;-72